Time;durP1;ratioP1;P1;durP2;ratioP2;P2;SDS_P1;SDS_P2;PMS_P1;PMS_P2;Temp;Humidity;BMP_temperature;BMP_pressure;BME280_temperature;BME280_humidity;BME280_pressure;Samples;Min_cycle;Max_cycle;Signal;HPM_P1;HPM_P2
2021/11/11 00:00:47;;;;;;;26.50;17.00;;;;;;;-1.54;83.29;98794.98;108111;1272;58960;-71
2021/11/11 00:03:19;;;;;;;33.30;18.40;;;;;;;-1.54;83.25;98792.59;108068;1272;70030;-69
2021/11/11 00:05:48;;;;;;;23.70;15.00;;;;;;;-1.57;83.25;98794.81;108037;1272;68745;-73
2021/11/11 00:08:18;;;;;;;27.50;18.00;;;;;;;-1.58;83.34;98792.42;108130;1271;69531;-73
2021/11/11 00:10:49;;;;;;;24.10;16.20;;;;;;;-1.61;83.31;98793.46;108173;1269;58909;-69
2021/11/11 00:13:21;;;;;;;29.00;17.40;;;;;;;-1.63;83.32;98789.52;108071;1268;58958;-74
2021/11/11 00:15:51;;;;;;;72.30;24.80;;;;;;;-1.69;83.47;98787.32;107991;1274;70957;-68
2021/11/11 00:18:21;;;;;;;54.90;22.40;;;;;;;-1.81;83.75;98788.37;107977;1271;66900;-70
2021/11/11 00:20:51;;;;;;;42.90;17.20;;;;;;;-1.90;83.55;98785.13;108011;1272;68688;-72
2021/11/11 00:23:21;;;;;;;22.40;13.30;;;;;;;-1.94;83.19;98783.42;108046;1272;58967;-72
2021/11/11 00:25:50;;;;;;;49.20;20.00;;;;;;;-1.95;83.14;98779.31;108159;1272;58984;-69
2021/11/11 00:28:20;;;;;;;46.40;19.30;;;;;;;-2.01;83.67;98778.99;108151;1272;70762;-74
2021/11/11 00:30:50;;;;;;;18.10;11.90;;;;;;;-2.09;83.39;98781.05;108208;1270;68685;-72
2021/11/11 00:33:21;;;;;;;35.90;18.60;;;;;;;-2.15;83.66;98776.60;108204;1269;68585;-69
2021/11/11 00:35:51;;;;;;;121.30;32.20;;;;;;;-2.18;83.73;98777.63;108123;1272;58964;-73
2021/11/11 00:38:20;;;;;;;101.30;32.70;;;;;;;-2.28;85.57;98777.80;108041;1271;58963;-74
2021/11/11 00:40:50;;;;;;;126.80;32.30;;;;;;;-2.32;85.95;98779.33;108034;1272;71553;-72
2021/11/11 00:43:20;;;;;;;54.60;25.80;;;;;;;-2.36;85.74;98775.59;108107;1272;68543;-70
2021/11/11 00:45:50;;;;;;;65.10;27.40;;;;;;;-2.42;86.27;98773.70;108097;1272;69405;-72
2021/11/11 00:48:20;;;;;;;24.30;15.10;;;;;;;-2.44;87.06;98770.96;108017;1272;58952;-70
2021/11/11 00:50:50;;;;;;;57.10;20.00;;;;;;;-2.40;85.67;98774.39;108129;1272;58849;-71
2021/11/11 00:53:20;;;;;;;82.50;30.70;;;;;;;-2.45;87.05;98773.01;108049;1274;70791;-73
2021/11/11 00:55:50;;;;;;;40.70;25.50;;;;;;;-2.54;88.49;98774.88;108138;1272;67649;-72
2021/11/11 00:58:25;;;;;;;44.90;23.30;;;;;;;-2.50;88.99;98769.95;108055;1272;69219;-69
2021/11/11 01:00:55;;;;;;;35.50;21.50;;;;;;;-2.46;88.72;98767.71;108098;1272;58950;-72
2021/11/11 01:03:33;;;;;;;19.60;13.60;;;;;;;-2.41;88.18;98762.94;108124;1271;58987;-73
2021/11/11 01:06:04;;;;;;;55.40;28.90;;;;;;;-2.34;86.61;98762.10;108057;1273;70817;-70
2021/11/11 01:08:35;;;;;;;55.90;27.20;;;;;;;-2.31;87.73;98762.25;108167;1272;67891;-72
2021/11/11 01:11:05;;;;;;;;;;;;;;;-2.26;87.79;98763.12;108108;1271;68418;-72
2021/11/11 01:13:37;;;;;;;32.40;21.10;;;;;;;-2.25;87.79;98759.36;108112;1271;58849;-74
2021/11/11 01:16:07;;;;;;;22.40;14.90;;;;;;;-2.23;87.35;98755.43;108149;1273;58892;-69
2021/11/11 01:18:39;;;;;;;50.10;23.90;;;;;;;-2.19;86.19;98755.09;108057;1271;70573;-69
2021/11/11 01:21:10;;;;;;;32.00;19.80;;;;;;;-2.18;85.63;98752.86;108103;1272;68640;-74
2021/11/11 01:23:41;;;;;;;31.80;19.90;;;;;;;-2.19;85.64;98750.13;108118;1272;69495;-69
2021/11/11 01:26:11;;;;;;;;;;;;;;;-2.20;85.44;98749.11;108035;1272;59031;-72
2021/11/11 01:28:40;;;;;;;30.00;20.70;;;;;;;-2.21;85.85;98748.77;108080;1274;58881;-70
2021/11/11 01:31:14;;;;;;;59.90;28.80;;;;;;;-2.27;86.51;98745.52;108078;1271;69962;-70
2021/11/11 01:33:48;;;;;;;42.10;23.50;;;;;;;-2.33;86.98;98742.12;108080;1272;67866;-72
2021/11/11 01:36:19;;;;;;;24.40;18.10;;;;;;;-2.33;86.33;98748.27;108028;1274;69505;-74
2021/11/11 01:38:58;;;;;;;73.90;28.40;;;;;;;-2.32;85.47;98745.69;108082;1272;58936;-72
2021/11/11 01:41:49;;;;;;;59.60;26.80;;;;;;;-2.38;85.85;98738.52;108056;1272;58898;-70
2021/11/11 01:44:20;;;;;;;41.10;24.70;;;;;;;-2.44;85.77;98741.94;107972;1274;69850;-70
2021/11/11 01:46:51;;;;;;;17.80;12.30;;;;;;;-2.50;85.48;98739.04;108035;1272;67914;-73
2021/11/11 01:49:25;;;;;;;38.50;20.80;;;;;;;-2.51;85.20;98742.45;108393;1273;69427;-69
2021/11/11 01:51:56;;;;;;;23.10;15.70;;;;;;;-2.53;85.18;98741.42;108049;1272;58915;-73
2021/11/11 01:54:27;;;;;;;17.50;13.10;;;;;;;-2.52;84.95;98741.09;108118;1272;58954;-70
2021/11/11 01:57:01;;;;;;;26.30;17.50;;;;;;;-2.50;84.46;98740.23;107998;1275;69833;-71
2021/11/11 01:59:34;;;;;;;21.20;14.50;;;;;;;-2.50;84.31;98744.15;108149;1272;67788;-73
2021/11/11 02:02:30;;;;;;;41.20;20.00;;;;;;;-2.49;84.16;98744.33;108031;1272;68631;-73
2021/11/11 02:04:59;;;;;;;;;;;;;;;-2.53;84.86;98742.45;107906;1275;58979;-73
2021/11/11 02:07:29;;;;;;;20.20;14.40;;;;;;;-2.58;84.70;98742.27;108092;1271;58881;-69
2021/11/11 02:09:59;;;;;;;31.20;17.30;;;;;;;-2.60;84.82;98746.36;108072;1272;70747;-73
2021/11/11 02:12:41;;;;;;;54.90;23.00;;;;;;;-2.59;85.01;98746.55;108106;1272;67813;-69
2021/11/11 02:15:17;;;;;;;12.30;9.40;;;;;;;-2.61;85.08;98750.98;108027;1272;69432;-68
2021/11/11 02:17:48;;;;;;;20.20;13.80;;;;;;;-2.60;84.66;98749.27;108095;1271;58962;-73
2021/11/11 02:20:32;;;;;;;34.70;21.70;;;;;;;-2.58;84.10;98749.11;107944;1272;58968;-70
2021/11/11 02:23:09;;;;;;;28.40;17.50;;;;;;;-2.56;84.02;98748.06;108117;1270;70720;-69
2021/11/11 02:26:03;;;;;;;15.60;11.50;;;;;;;-2.56;83.80;98747.05;108041;1272;68464;-69
2021/11/11 02:28:50;;;;;;;13.40;9.10;;;;;;;-2.56;83.76;98747.05;108056;1272;69438;-68
2021/11/11 02:31:22;;;;;;;18.30;12.60;;;;;;;-2.53;83.43;98746.39;108112;1271;59002;-69
2021/11/11 02:33:55;;;;;;;20.00;14.50;;;;;;;-2.53;83.26;98742.63;108165;1272;59379;-69
2021/11/11 02:36:59;;;;;;;19.90;15.00;;;;;;;-2.53;83.18;98743.64;108061;1272;70564;-73
2021/11/11 02:39:47;;;;;;;33.70;19.70;;;;;;;-2.55;83.08;98746.70;108096;1272;68637;-73
2021/11/11 02:42:18;;;;;;;;;;;;;;;-2.59;83.71;98749.27;108048;1272;68492;-72
2021/11/11 02:44:54;;;;;;;35.20;19.70;;;;;;;-2.64;84.61;98749.94;108143;1271;58979;-72
2021/11/11 02:47:27;;;;;;;48.00;25.20;;;;;;;-2.63;84.52;98755.08;108095;1275;58889;-70
2021/11/11 02:49:58;;;;;;;30.30;18.10;;;;;;;-2.66;85.72;98752.34;108004;1271;69573;-72
2021/11/11 02:52:29;;;;;;;23.80;13.70;;;;;;;-2.63;84.79;98755.74;108117;1272;68579;-70
2021/11/11 02:55:00;;;;;;;24.10;15.50;;;;;;;-2.60;84.01;98759.66;108061;1274;68563;-69
2021/11/11 02:57:34;;;;;;;21.40;13.60;;;;;;;-2.58;83.70;98762.94;108069;1271;58900;-69
2021/11/11 03:00:16;;;;;;;27.60;18.20;;;;;;;-2.56;84.29;98761.73;107985;1275;58926;-68
2021/11/11 03:02:49;;;;;;;29.50;18.10;;;;;;;-2.55;84.19;98765.14;107904;1275;70748;-68
2021/11/11 03:05:31;;;;;;;16.50;11.30;;;;;;;-2.55;84.29;98766.67;108073;1271;67888;-72
2021/11/11 03:08:05;;;;;;;40.70;23.10;;;;;;;-2.54;83.84;98762.77;107907;1275;68444;-71
2021/11/11 03:10:39;;;;;;;139.80;28.80;;;;;;;-2.54;84.16;98759.68;108019;1275;58959;-71
2021/11/11 03:13:10;;;;;;;24.40;13.90;;;;;;;-2.50;83.97;98759.52;108058;1272;58903;-73
2021/11/11 03:15:42;;;;;;;26.40;14.50;;;;;;;-2.47;85.31;98762.60;108106;1272;70780;-70
2021/11/11 03:18:12;;;;;;;22.10;13.90;;;;;;;-2.43;84.96;98766.53;108109;1272;67676;-73
2021/11/11 03:20:42;;;;;;;25.20;13.70;;;;;;;-2.42;84.04;98764.13;108078;1272;68784;-74
2021/11/11 03:23:12;;;;;;;13.10;9.40;;;;;;;-2.38;83.83;98762.42;108107;1272;58960;-74
2021/11/11 03:25:42;;;;;;;44.50;20.90;;;;;;;-2.35;83.51;98760.38;108071;1272;58852;-73
2021/11/11 03:28:13;;;;;;;52.10;25.30;;;;;;;-2.35;84.62;98757.30;107964;1273;70806;-72
2021/11/11 03:30:44;;;;;;;38.40;21.20;;;;;;;-2.37;86.43;98758.16;108127;1272;68637;-74
2021/11/11 03:33:15;;;;;;;80.40;27.50;;;;;;;-2.37;87.26;98759.52;108099;1272;68676;-73
2021/11/11 03:35:47;;;;;;;49.10;24.00;;;;;;;-2.44;87.53;98760.71;108064;1272;60379;-69
2021/11/11 03:38:17;;;;;;;72.10;27.90;;;;;;;-2.46;87.54;98758.83;108013;1272;58876;-68
2021/11/11 03:40:47;;;;;;;61.10;25.80;;;;;;;-2.50;88.23;98759.02;108079;1272;69662;-72
2021/11/11 03:43:22;;;;;;;68.70;29.90;;;;;;;-2.52;88.51;98756.45;108094;1272;67580;-73
2021/11/11 03:45:57;;;;;;;48.40;23.40;;;;;;;-2.50;88.60;98754.57;108135;1271;69467;-68
2021/11/11 03:48:31;;;;;;;35.60;20.60;;;;;;;-2.49;88.95;98754.40;108177;1272;58941;-69
2021/11/11 03:51:02;;;;;;;44.80;21.10;;;;;;;-2.49;89.23;98752.52;108250;1272;58871;-68
2021/11/11 03:53:33;;;;;;;;;;;;;;;-2.49;89.34;98752.69;108139;1269;70582;-69
2021/11/11 03:56:04;;;;;;;21.60;14.20;;;;;;;-2.50;89.13;98752.01;108039;1272;68430;-72
2021/11/11 03:58:34;;;;;;;82.30;24.60;;;;;;;-2.49;88.92;98757.66;108032;1272;69400;-69
2021/11/11 04:01:04;;;;;;;74.00;26.30;;;;;;;-2.47;87.87;98758.00;108125;1272;58928;-70
2021/11/11 04:03:34;;;;;;;87.70;25.50;;;;;;;-2.56;88.29;98755.59;108074;1275;58951;-70
2021/11/11 04:06:03;;;;;;;17.10;11.00;;;;;;;-2.56;88.74;98759.52;108108;1272;70198;-71
2021/11/11 04:08:36;;;;;;;45.90;19.80;;;;;;;-2.52;87.52;98754.06;108273;1273;67897;-70
2021/11/11 04:11:06;;;;;;;14.30;9.40;;;;;;;-2.54;87.42;98752.52;108083;1272;68665;-69
2021/11/11 04:13:36;;;;;;;20.90;14.60;;;;;;;-2.48;86.50;98748.59;108095;1272;58925;-68
2021/11/11 04:16:06;;;;;;;27.70;16.50;;;;;;;-2.54;86.42;98748.08;108141;1269;58899;-72
2021/11/11 04:18:37;;;;;;;84.20;25.70;;;;;;;-2.63;87.43;98743.11;108094;1273;69940;-72
2021/11/11 04:21:07;;;;;;;22.90;15.10;;;;;;;-2.68;88.69;98744.99;108083;1275;68620;-73
2021/11/11 04:23:37;;;;;;;26.30;15.10;;;;;;;-2.68;88.76;98745.66;108016;1275;69461;-71
2021/11/11 04:26:13;;;;;;;39.70;16.80;;;;;;;-2.69;88.22;98747.71;107995;1275;59264;-69
2021/11/11 04:28:57;;;;;;;40.20;18.90;;;;;;;-2.70;87.67;98750.45;108148;1272;58957;-69
2021/11/11 04:31:40;;;;;;;58.40;23.70;;;;;;;-2.71;87.67;98748.40;108092;1272;69766;-68
2021/11/11 04:34:13;;;;;;;16.10;12.80;;;;;;;-2.77;88.14;98748.73;108169;1272;67910;-72
2021/11/11 04:39:55;;;;;;;18.20;11.90;;;;;;;-2.76;87.40;98745.33;108150;1274;58917;-72
2021/11/11 04:42:33;;;;;;;22.10;13.60;;;;;;;-2.77;86.98;98740.71;108308;1273;58909;-73
2021/11/11 04:59:38;;;;;;;169.80;30.50;;;;;;;-2.95;86.74;98743.23;108179;1273;71239;-72
2021/11/11 05:02:35;;;;;;;35.00;18.50;;;;;;;-3.00;87.74;98743.23;108212;1273;68408;-72
2021/11/11 05:05:06;;;;;;;31.20;14.00;;;;;;;-2.99;87.68;98740.15;108294;1273;69480;-73
2021/11/11 05:07:35;;;;;;;29.10;15.70;;;;;;;-2.95;87.11;98741.88;108070;1275;58936;-73
2021/11/11 05:10:05;;;;;;;42.60;18.60;;;;;;;-2.92;87.20;98742.04;108181;1269;58899;-71
2021/11/11 05:12:35;;;;;;;21.90;13.60;;;;;;;-2.91;87.20;98745.46;108201;1271;70150;-71
2021/11/11 05:15:06;;;;;;;18.50;12.20;;;;;;;-2.87;86.76;98747.00;108168;1266;68141;-69
2021/11/11 05:17:38;;;;;;;30.30;15.90;;;;;;;-2.84;86.49;98749.73;108030;1274;68061;-68
2021/11/11 05:20:08;;;;;;;47.70;20.60;;;;;;;-2.86;87.28;98750.60;108138;1272;58957;-73
2021/11/11 05:22:38;;;;;;;57.90;20.00;;;;;;;-2.90;88.09;98751.61;108125;1272;58836;-71
2021/11/11 05:25:08;;;;;;;34.90;18.70;;;;;;;-2.94;88.39;98755.02;108292;1273;69999;-72
2021/11/11 05:27:39;;;;;;;42.40;19.70;;;;;;;-2.95;88.31;98753.99;108204;1273;69091;-69
2021/11/11 05:30:11;;;;;;;35.50;18.50;;;;;;;-3.00;88.70;98752.27;108117;1273;70458;-69
2021/11/11 05:32:40;;;;;;;39.20;18.70;;;;;;;-2.98;89.18;98755.17;108061;1275;58899;-69
2021/11/11 05:35:11;;;;;;;58.40;20.60;;;;;;;-2.96;89.41;98755.85;107987;1275;58902;-69
2021/11/11 05:37:44;;;;;;;46.20;20.10;;;;;;;-2.95;89.60;98758.25;108082;1271;68812;-69
2021/11/11 05:40:15;;;;;;;37.90;20.30;;;;;;;-2.96;89.61;98758.23;108177;1273;68774;-69
2021/11/11 05:42:45;;;;;;;56.50;22.30;;;;;;;-2.94;89.96;98760.98;108155;1272;69543;-71
2021/11/11 05:45:17;;;;;;;26.80;13.40;;;;;;;-2.89;90.20;98763.38;108074;1272;58877;-74
2021/11/11 05:47:47;;;;;;;22.40;14.10;;;;;;;-2.83;90.13;98762.88;108143;1272;58915;-71
2021/11/11 05:50:21;;;;;;;70.30;23.50;;;;;;;-2.80;89.90;98766.48;108123;1272;69941;-71
2021/11/11 05:52:51;;;;;;;58.10;21.00;;;;;;;-2.77;90.17;98764.27;108152;1272;68113;-71
2021/11/11 05:55:21;;;;;;;17.10;11.10;;;;;;;-2.70;89.82;98768.71;108064;1272;69219;-70
2021/11/11 05:57:52;;;;;;;16.30;9.90;;;;;;;-2.64;88.94;98769.74;108109;1271;58944;-70
2021/11/11 06:00:22;;;;;;;37.00;17.90;;;;;;;-2.62;88.31;98774.35;108033;1275;58948;-74
2021/11/11 06:03:01;;;;;;;9.90;7.40;;;;;;;-2.62;88.29;98770.77;108075;1273;70813;-70
2021/11/11 06:05:31;;;;;;;51.80;18.90;;;;;;;-2.56;87.89;98771.80;108119;1272;68091;-73
2021/11/11 06:08:01;;;;;;;20.20;11.10;;;;;;;-2.55;88.18;98771.46;108118;1274;69538;-72
2021/11/11 06:10:30;;;;;;;11.00;7.90;;;;;;;-2.50;87.81;98773.02;108159;1272;58894;-72
2021/11/11 06:12:59;;;;;;;25.10;14.70;;;;;;;-2.44;87.20;98774.73;108119;1272;58913;-71
2021/11/11 06:15:28;;;;;;;18.10;12.50;;;;;;;-2.39;87.04;98777.29;108091;1272;71331;-71
2021/11/11 06:17:59;;;;;;;19.10;13.50;;;;;;;-2.34;87.37;98770.80;108110;1272;68703;-70
2021/11/11 06:20:32;;;;;;;;;;;;;;;-2.30;87.44;98775.08;108099;1272;69310;-70
2021/11/11 06:23:07;;;;;;;35.00;16.80;;;;;;;-2.28;87.73;98775.07;108136;1271;58923;-72
2021/11/11 06:25:39;;;;;;;26.00;15.10;;;;;;;-2.31;88.01;98778.16;108099;1272;58988;-73
2021/11/11 06:28:09;;;;;;;27.50;14.40;;;;;;;-2.28;88.31;98775.07;108090;1274;70001;-72
2021/11/11 06:30:39;;;;;;;32.70;17.00;;;;;;;-2.24;88.36;98777.12;108101;1272;68628;-69
2021/11/11 06:33:14;;;;;;;21.50;14.30;;;;;;;-2.22;88.78;98777.63;107974;1274;69459;-73
2021/11/11 06:35:43;;;;;;;26.50;14.40;;;;;;;-2.15;88.55;98779.85;108127;1271;59572;-72
2021/11/11 06:38:12;;;;;;;13.80;10.70;;;;;;;-2.06;87.54;98780.20;108078;1273;58903;-69
2021/11/11 06:40:41;;;;;;;17.60;10.70;;;;;;;-2.02;86.74;98782.75;108123;1275;70672;-70
2021/11/11 06:43:10;;;;;;;15.80;11.70;;;;;;;-2.00;86.62;98778.31;108110;1272;67891;-70
2021/11/11 06:45:42;;;;;;;16.50;11.20;;;;;;;-1.95;86.98;98773.34;108103;1272;68871;-70
2021/11/11 06:48:12;;;;;;;8.50;7.20;;;;;;;-1.86;86.97;98772.30;108115;1272;58987;-69
2021/11/11 06:50:43;;;;;;;16.70;9.80;;;;;;;-1.77;86.21;98769.23;108140;1273;58988;-69
2021/11/11 06:53:15;;;;;;;18.70;12.90;;;;;;;-1.73;85.87;98767.50;108125;1274;70002;-69
2021/11/11 06:55:46;;;;;;;18.50;11.70;;;;;;;-1.71;85.81;98766.64;108138;1274;68307;-70
2021/11/11 06:58:23;;;;;;;21.80;14.30;;;;;;;-1.67;86.00;98763.55;108116;1275;68991;-69
2021/11/11 07:00:57;;;;;;;26.30;11.90;;;;;;;-1.62;86.44;98766.45;108151;1272;58952;-69
2021/11/11 07:03:27;;;;;;;10.80;8.30;;;;;;;-1.52;85.95;98762.15;108103;1272;58919;-69
2021/11/11 07:05:58;;;;;;;13.60;9.70;;;;;;;-1.45;85.55;98759.55;108066;1272;70069;-68
2021/11/11 07:08:27;;;;;;;;;;;;;;;-1.41;85.48;98755.11;108113;1275;68093;-68
2021/11/11 07:10:56;;;;;;;22.00;13.80;;;;;;;-1.33;85.32;98753.52;108071;1273;69464;-71
2021/11/11 07:13:25;;;;;;;25.30;11.40;;;;;;;-1.25;85.19;98755.89;108081;1273;58958;-68
2021/11/11 07:15:54;;;;;;;43.70;17.10;;;;;;;-1.36;85.30;98750.80;108094;1272;58914;-69
2021/11/11 07:18:23;;;;;;;13.60;10.30;;;;;;;-1.44;86.09;98746.90;108103;1272;70640;-74
2021/11/11 07:20:53;;;;;;;28.50;15.20;;;;;;;-1.41;85.67;98745.86;108105;1272;68180;-70
2021/11/11 07:23:23;;;;;;;24.40;12.70;;;;;;;-1.42;86.11;98745.70;108100;1274;69414;-70
2021/11/11 07:25:54;;;;;;;31.00;15.70;;;;;;;-1.44;86.26;98745.03;108050;1272;59344;-70
2021/11/11 07:28:23;;;;;;;20.20;12.80;;;;;;;-1.39;86.74;98743.46;108128;1273;58901;-70
2021/11/11 07:30:53;;;;;;;38.60;17.50;;;;;;;-1.30;86.02;98745.82;108113;1274;68908;-69
2021/11/11 07:33:23;;;;;;;15.00;10.60;;;;;;;-1.23;86.17;98735.02;108238;1272;67836;-69
2021/11/11 07:35:52;;;;;;;51.80;19.70;;;;;;;-1.12;85.70;98731.54;108205;1273;68659;-73
2021/11/11 07:38:21;;;;;;;27.20;13.00;;;;;;;-1.05;85.54;98728.08;108128;1274;58964;-69
2021/11/11 07:40:50;;;;;;;41.60;18.60;;;;;;;-1.11;85.41;98727.27;108113;1275;58893;-72
2021/11/11 07:43:20;;;;;;;31.60;15.10;;;;;;;-1.10;85.50;98725.20;108042;1272;70803;-72
2021/11/11 07:45:52;;;;;;;44.00;18.30;;;;;;;-1.09;85.65;98728.45;107997;1275;68799;-70
2021/11/11 07:48:22;;;;;;;27.60;14.50;;;;;;;-1.05;86.21;98724.31;108078;1272;69464;-70
2021/11/11 07:50:53;;;;;;;13.70;9.50;;;;;;;-0.96;85.76;98721.86;108060;1274;58932;-70
2021/11/11 07:53:22;;;;;;;22.50;13.00;;;;;;;-0.82;85.27;98720.77;108003;1272;58948;-70
2021/11/11 07:55:51;;;;;;;15.70;11.20;;;;;;;-0.68;85.13;98712.95;108102;1272;70989;-70
2021/11/11 07:58:21;;;;;;;12.60;10.10;;;;;;;-0.53;84.95;98710.63;108018;1275;68711;-70
2021/11/11 08:00:51;;;;;;;20.20;13.40;;;;;;;-0.38;84.77;98708.45;108095;1270;68894;-70
2021/11/11 08:03:20;;;;;;;19.20;11.60;;;;;;;-0.25;84.30;98706.46;108078;1275;58918;-69
2021/11/11 08:05:49;;;;;;;26.00;15.50;;;;;;;-0.14;84.27;98706.88;108100;1272;58941;-69
2021/11/11 08:08:18;;;;;;;33.50;18.10;;;;;;;-0.04;83.69;98703.34;108099;1271;71028;-70
2021/11/11 08:10:47;;;;;;;31.50;18.60;;;;;;;-0.13;83.07;98699.65;108080;1272;68434;-70
2021/11/11 08:13:16;;;;;;;19.20;12.10;;;;;;;-0.10;83.00;98699.96;107902;1275;68510;-70
2021/11/11 08:15:45;;;;;;;15.90;10.10;;;;;;;0.00;82.96;98693.52;108053;1273;58935;-71
2021/11/11 08:18:14;;;;;;;27.80;13.30;;;;;;;0.16;83.22;98690.78;108100;1274;58849;-70
2021/11/11 08:20:43;;;;;;;20.10;12.50;;;;;;;0.30;83.19;98688.59;108147;1270;70478;-71
2021/11/11 08:23:14;;;;;;;38.90;19.40;;;;;;;0.39;82.76;98689.16;108110;1272;69050;-70
2021/11/11 08:25:48;;;;;;;32.80;16.80;;;;;;;0.23;81.32;98691.74;108104;1272;69451;-69
2021/11/11 08:28:20;;;;;;;16.70;10.30;;;;;;;0.05;81.95;98686.96;108046;1274;58319;-69
2021/11/11 08:30:50;;;;;;;21.50;12.40;;;;;;;0.12;82.08;98687.41;108153;1272;58961;-70
2021/11/11 08:33:19;;;;;;;40.10;17.60;;;;;;;0.22;81.96;98689.52;108102;1274;70750;-71
2021/11/11 08:35:50;;;;;;;19.20;11.40;;;;;;;0.12;81.79;98688.09;108018;1274;67959;-72
2021/11/11 08:38:20;;;;;;;19.90;12.40;;;;;;;0.27;82.04;98688.27;108014;1271;70062;-69
2021/11/11 08:40:49;;;;;;;17.60;10.70;;;;;;;0.46;82.08;98688.56;108118;1272;58989;-71
2021/11/11 08:43:17;;;;;;;15.10;10.10;;;;;;;0.61;81.93;98689.75;108062;1274;58916;-71
2021/11/11 08:45:48;;;;;;;29.20;17.00;;;;;;;0.78;81.87;98686.10;107851;1276;70181;-70
2021/11/11 08:48:20;;;;;;;30.50;18.40;;;;;;;0.94;81.40;98688.98;107885;1275;68663;-70
2021/11/11 08:50:49;;;;;;;23.50;14.70;;;;;;;0.88;80.01;98689.56;108007;1274;68673;-71
2021/11/11 08:53:18;;;;;;;37.70;17.20;;;;;;;0.80;80.26;98687.95;108012;1272;58891;-72
2021/11/11 08:55:47;;;;;;;19.30;13.00;;;;;;;0.90;80.21;98681.98;108162;1272;58996;-72
2021/11/11 08:58:16;;;;;;;18.20;11.90;;;;;;;1.10;80.61;98677.91;108043;1275;70754;-71
2021/11/11 09:00:50;;;;;;;17.70;10.40;;;;;;;1.32;79.53;98674.50;108046;1273;69240;-70
2021/11/11 09:03:20;;;;;;;33.70;17.40;;;;;;;1.51;79.11;98670.25;107878;1276;69633;-70
2021/11/11 09:05:49;;;;;;;25.90;14.70;;;;;;;1.56;78.38;98663.64;108012;1275;58974;-70
2021/11/11 09:08:18;;;;;;;12.90;8.20;;;;;;;1.73;79.02;98660.44;108006;1274;58954;-70
2021/11/11 09:10:50;;;;;;;14.10;9.10;;;;;;;1.91;79.31;98663.73;108045;1272;70866;-69
2021/11/11 09:13:30;;;;;;;20.80;13.70;;;;;;;2.15;79.04;98661.20;108018;1272;68699;-70
2021/11/11 09:16:01;;;;;;;24.00;14.40;;;;;;;2.30;78.60;98651.98;108110;1275;69507;-71
2021/11/11 09:18:31;;;;;;;12.90;8.60;;;;;;;2.51;78.13;98646.05;108116;1273;58919;-72
2021/11/11 09:21:05;;;;;;;26.20;16.50;;;;;;;2.78;77.82;98642.89;107974;1275;58948;-70
2021/11/11 09:23:36;;;;;;;26.80;16.70;;;;;;;2.70;75.66;98635.64;108110;1272;71358;-69
2021/11/11 09:26:07;;;;;;;25.60;15.10;;;;;;;2.34;76.53;98630.38;108057;1273;69055;-69
2021/11/11 09:28:39;;;;;;;28.20;16.80;;;;;;;2.48;76.88;98630.27;108050;1272;67721;-69
2021/11/11 09:31:12;;;;;;;24.70;16.20;;;;;;;2.54;76.08;98622.92;108100;1272;58962;-72
2021/11/11 09:33:43;;;;;;;18.70;13.00;;;;;;;2.75;76.10;98619.20;108109;1272;58907;-71
2021/11/11 09:36:15;;;;;;;18.60;12.30;;;;;;;3.07;76.38;98616.74;107988;1274;69859;-70
2021/11/11 09:38:45;;;;;;;17.50;12.30;;;;;;;3.53;76.19;98612.52;107997;1275;69097;-70
2021/11/11 09:41:16;;;;;;;22.90;15.30;;;;;;;4.20;75.06;98611.93;108057;1272;69617;-71
2021/11/11 09:43:45;;;;;;;13.70;8.70;;;;;;;4.75;74.47;98610.30;108090;1275;58970;-70
2021/11/11 09:46:17;;;;;;;18.20;11.40;;;;;;;5.17;72.37;98614.91;108094;1275;58938;-70
2021/11/11 09:48:46;;;;;;;21.20;14.40;;;;;;;5.43;71.25;98608.00;108157;1274;70749;-70
2021/11/11 09:51:20;;;;;;;15.80;10.80;;;;;;;5.90;71.51;98600.87;108110;1275;68594;-70
2021/11/11 09:54:07;;;;;;;20.30;12.90;;;;;;;6.86;68.81;98599.42;108111;1274;68677;-71
2021/11/11 09:59:27;;;;;;;19.80;13.20;;;;;;;9.19;65.50;98592.58;107964;1274;58921;-71
2021/11/11 10:01:57;;;;;;;18.80;14.70;;;;;;;10.12;58.10;98581.85;108121;1272;70948;-71
2021/11/11 10:04:27;;;;;;;13.60;10.30;;;;;;;10.75;58.60;98576.71;108146;1275;68551;-70
2021/11/11 10:06:56;;;;;;;17.50;14.60;;;;;;;11.68;57.22;98570.35;108053;1272;70120;-73
2021/11/11 10:09:26;;;;;;;24.80;19.00;;;;;;;11.88;49.72;98564.33;108310;1269;58848;-71
2021/11/11 10:11:59;;;;;;;25.40;20.60;;;;;;;11.57;49.14;98564.05;108062;1275;58926;-70
2021/11/11 10:14:31;;;;;;;22.60;17.70;;;;;;;11.83;50.95;98561.13;108090;1273;69790;-71
2021/11/11 10:17:08;;;;;;;20.60;15.20;;;;;;;12.53;50.00;98559.84;108052;1275;68575;-71
2021/11/11 10:19:39;;;;;;;21.60;17.10;;;;;;;13.31;48.52;98554.11;108042;1275;69389;-71
2021/11/11 10:22:32;;;;;;;20.00;15.40;;;;;;;13.71;44.36;98550.45;108145;1274;58846;-71
2021/11/11 10:25:06;;;;;;;21.60;17.60;;;;;;;14.48;44.81;98551.44;108374;1269;58894;-71
2021/11/11 10:27:46;;;;;;;16.80;12.00;;;;;;;15.18;47.23;98546.77;108109;1273;71370;-72
2021/11/11 10:30:28;;;;;;;14.20;10.70;;;;;;;16.08;46.79;98540.30;108426;1269;69228;-71
2021/11/11 10:33:09;;;;;;;14.10;11.80;;;;;;;16.45;40.89;98532.47;108435;1273;69457;-70
2021/11/11 10:35:43;;;;;;;17.60;14.40;;;;;;;17.13;44.03;98526.67;108168;1273;58884;-71
2021/11/11 10:38:21;;;;;;;19.60;16.80;;;;;;;17.68;42.17;98519.68;108391;1269;58909;-71
2021/11/11 10:40:52;;;;;;;15.80;14.00;;;;;;;18.16;39.18;98521.96;108312;1273;71126;-72
2021/11/11 10:43:25;;;;;;;19.20;15.00;;;;;;;18.45;38.52;98521.20;108227;1270;68138;-71
2021/11/11 10:45:56;;;;;;;19.40;14.80;;;;;;;18.54;36.34;98520.89;108139;1272;67661;-72
2021/11/11 10:48:27;;;;;;;22.00;19.00;;;;;;;18.62;35.95;98518.44;108091;1272;58861;-72
2021/11/11 10:50:59;;;;;;;21.50;18.00;;;;;;;18.14;34.00;98516.63;108112;1272;58954;-73
2021/11/11 10:53:34;;;;;;;23.90;21.00;;;;;;;17.99;35.04;98510.20;107932;1275;71338;-72
2021/11/11 10:56:06;;;;;;;19.00;16.50;;;;;;;17.70;35.09;98504.86;108021;1272;68499;-72
2021/11/11 10:58:40;;;;;;;17.90;14.00;;;;;;;17.72;35.00;98501.17;108093;1274;68688;-72
2021/11/11 11:01:19;;;;;;;18.00;14.20;;;;;;;18.39;35.19;98499.10;108097;1272;58910;-73
2021/11/11 11:03:49;;;;;;;20.80;16.80;;;;;;;18.83;33.92;98495.40;108153;1275;58925;-73
2021/11/11 11:06:23;;;;;;;19.30;14.70;;;;;;;19.00;33.05;98486.66;108198;1273;70804;-72
2021/11/11 11:08:57;;;;;;;20.40;16.10;;;;;;;19.03;32.30;98486.58;108007;1272;68676;-74
2021/11/11 11:11:34;;;;;;;18.90;14.70;;;;;;;19.25;33.23;98479.21;108055;1273;69518;-72
2021/11/11 11:14:12;;;;;;;19.80;16.50;;;;;;;19.81;32.87;98482.79;108087;1273;58976;-73
2021/11/11 11:16:41;;;;;;;17.00;12.90;;;;;;;20.37;31.51;98479.23;108022;1272;58967;-71
2021/11/11 11:19:13;;;;;;;17.50;15.20;;;;;;;20.75;30.26;98477.31;108002;1272;70009;-73
2021/11/11 11:21:45;;;;;;;21.40;18.40;;;;;;;21.16;30.15;98469.35;108009;1275;67973;-72
2021/11/11 11:24:18;;;;;;;16.90;14.60;;;;;;;21.49;29.53;98468.20;108104;1272;69003;-73
2021/11/11 11:26:53;;;;;;;16.80;14.20;;;;;;;21.78;28.63;98463.77;108053;1275;59012;-74
2021/11/11 11:29:36;;;;;;;18.50;15.70;;;;;;;21.79;27.76;98458.36;108006;1275;58919;-72
2021/11/11 11:34:40;;;;;;;16.80;13.30;;;;;;;21.84;26.90;98461.04;108066;1274;67910;-73
2021/11/11 11:37:17;;;;;;;13.80;12.30;;;;;;;21.91;27.86;98462.11;107808;1275;69475;-73
2021/11/11 11:39:50;;;;;;;22.10;17.70;;;;;;;22.05;27.80;98456.27;108070;1272;58904;-73
2021/11/11 11:42:35;;;;;;;16.00;13.30;;;;;;;21.32;27.54;98455.40;108050;1273;58986;-74
2021/11/11 11:45:14;;;;;;;17.60;15.00;;;;;;;21.73;28.27;98450.66;108118;1273;70861;-72
2021/11/11 11:50:26;;;;;;;19.80;15.10;;;;;;;22.28;26.98;98445.41;108074;1275;68625;-73
2021/11/11 11:53:01;;;;;;;14.20;12.10;;;;;;;22.26;27.04;98440.93;108077;1275;58910;-73
2021/11/11 11:55:45;;;;;;;16.30;14.00;;;;;;;22.27;27.16;98437.05;108020;1274;58873;-73
2021/11/11 12:01:27;;;;;;;16.80;14.10;;;;;;;21.95;26.91;98428.04;107945;1273;69307;-73
2021/11/11 12:07:14;;;;;;;18.60;16.10;;;;;;;22.08;27.17;98420.45;107999;1275;58904;-72